Detalii statie S.C. COSTANDACHE [000011A0]

Toti senzorii

Date Temperatura solului [C]Precipitatii [mm]Voltaj baterie [mV]Leaf Wetness [Min]HC Air temperature [C]HC Relative humidity [%]Punctul de roua [C]
medieminmaxsumaultimatimpmedieminmaxmediemediemin
2020-06-02 07:00:00 19 18.4 22 0 6454 0 12.03 12.01 12.08 0 0 0
2020-06-02 07:30:00 18.4 18.4 18.5 0 6454 0 12.19 12.1 12.28 0 0 0
2020-06-02 08:00:00 18.3 18.2 18.4 0 6424 0 12.45 12.36 12.61 0 0 0
2020-06-02 08:30:00 18.2 18.2 18.4 0 6474 0 12.93 12.66 13.16 0 0 0
2020-06-02 09:00:00 18.8 18.1 21.8 0 6512 0 13.45 13.14 13.98 0 0 0
2020-06-02 09:30:00 18.2 18.2 18.4 0 6512 0 14.54 14.16 14.88 0 0 0
2020-06-02 10:00:00 18.9 18.3 22 0 6484 0 13.6 13.14 14.26 0 0 0
2020-06-02 10:30:00 18.4 18.3 18.5 0 6512 0 13.6 13.24 13.98 0 0 0
2020-06-02 11:00:00 19.1 18.4 22.2 0 6502 0 13.66 13.49 13.91 0 0 0
2020-06-02 11:30:00 18.5 18.5 18.7 0 6474 0 13.85 13.7 13.97 0 0 0
2020-06-02 12:00:00 18.5 18.5 18.9 0 6484 0 13.25 12.85 13.65 0 0 0
2020-06-02 12:30:00 18.6 18.5 18.9 0.2 6464 0 12.49 11.91 12.77 0 0 0
2020-06-02 13:00:00 19.1 18.5 22 2 6424 0 11.09 10.83 11.57 0 0 0
2020-06-02 13:30:00 19.1 18.4 21.9 1.2 6494 30 10.99 10.81 11.23 0 0 0
2020-06-02 14:00:00 18.4 18.3 18.7 0.2 6552 30 11.56 11.38 12.08 0 0 0
2020-06-02 14:30:00 18.5 18.5 18.5 0 6512 30 12.41 12.18 12.57 0 0 0
2020-06-02 15:00:00 18.5 18.5 18.5 0 6572 30 13.1 12.51 13.84 0 0 0
2020-06-02 15:30:00 18.7 18.6 19 0.2 6562 30 14.95 14.34 15.5 0 0 0
2020-06-02 16:00:00 19 18.9 19.3 0 6542 30 15.46 14.94 16.02 0 0 0
2020-06-02 16:30:00 19.2 19.1 19.3 0 6512 30 14.52 14.18 14.95 0 0 0
2020-06-02 17:00:00 19.3 19.2 19.6 0 6494 30 14.43 14.28 14.77 0 0 0
2020-06-02 17:30:00 19.9 19.2 22.9 0 6532 10 15.06 14.88 15.32 0 0 0
2020-06-02 18:00:00 19.4 19.3 19.5 0 6484 0 14.94 14.57 15.29 0 0 0
2020-06-02 18:30:00 19.9 19.3 22.8 0 6484 0 14.44 14.28 14.66 0 0 0
2020-06-02 19:00:00 19.3 19.2 19.4 0 6454 0 14.55 14.42 14.72 0 0 0
2020-06-02 19:30:00 19.2 19.1 19.4 0 6464 0 14.34 14.28 14.42 0 0 0
2020-06-02 20:00:00 20.3 19.1 22.7 0 6424 0 14.03 13.69 14.28 0 0 0
2020-06-02 20:30:00 19 18.9 19.2 0 6444 0 13.18 12.79 13.59 0 0 0
2020-06-02 21:00:00 19.5 18.8 22.6 0 6444 0 12.35 12.15 12.68 0 0 0
2020-06-02 21:30:00 18.8 18.7 19 0 6434 0 11.9 11.63 12.15 0 0 0
2020-06-02 22:00:00 19.2 18.5 22.3 0 6434 0 11.32 11.09 11.55 0 0 0
2020-06-02 22:30:00 19 18.4 22.1 0 6396 0 10.64 10.42 10.91 0 0 0
2020-06-02 23:00:00 18.3 18.1 18.5 0 6434 0 10.02 9.79 10.31 0 0 0
2020-06-02 23:30:00 18.1 18 18.3 0 6424 0 9.65 9.26 9.97 0 0 0
2020-06-03 00:00:00 18.4 17.8 21.5 0 6424 0 9.78 9.52 9.93 0 0 0
2020-06-03 00:30:00 17.8 16.8 19 0 6396 0 9.36 9.24 9.48 0 0 0
2020-06-03 01:00:00 18.2 17.5 20.9 0 6424 0 9.45 9.42 9.51 0 0 0
2020-06-03 01:30:00 17.4 17.3 17.7 0 6396 0 9.41 9.24 9.63 0 0 0
2020-06-03 02:00:00 17.8 17.2 20.7 0 6424 0 10.02 9.54 10.26 0 0 0
2020-06-03 02:30:00 17.7 17.1 20.6 0 6416 0 10.06 9.96 10.2 0 0 0
2020-06-03 03:00:00 17.6 17.1 20.1 0 6424 0 9.59 9.37 9.85 0 0 0
2020-06-03 03:30:00 17 16.9 17.1 0 6424 0 9.23 9.09 9.36 0 0 0
2020-06-03 04:00:00 17.5 16.9 20.3 0 6386 0 9.01 8.9 9.06 0 0 0
2020-06-03 04:30:00 17.3 16.7 19.9 0 6424 0 8.77 8.63 8.91 0 0 0
2020-06-03 05:00:00 16.7 16.4 16.9 0 6386 0 8.42 8.15 8.64 0 0 0
2020-06-03 05:30:00 16.5 16.4 16.7 0 6416 0 7.95 7.89 8 0 0 0
2020-06-03 06:00:00 16.9 16.3 19.8 0 6386 0 8.17 7.95 8.3 0 0 0
2020-06-03 06:30:00 16.8 16.1 19.7 0 6416 0 8.33 8.29 8.45 0 0 0